sensor_id;sensor_type;location;lat;lon;timestamp;P1;durP1;ratioP1;P2;durP2;ratioP2
54813;SDS011;40714;51.378;-2.348;2023-09-18T00:02:25;2.00;;;1.52;;
54813;SDS011;40714;51.378;-2.348;2023-09-18T00:04:51;2.53;;;1.60;;
54813;SDS011;40714;51.378;-2.348;2023-09-18T00:07:17;2.60;;;1.75;;
54813;SDS011;40714;51.378;-2.348;2023-09-18T00:12:09;2.60;;;1.83;;
54813;SDS011;40714;51.378;-2.348;2023-09-18T00:14:38;2.33;;;1.70;;
54813;SDS011;40714;51.378;-2.348;2023-09-18T00:17:06;1.95;;;1.80;;
54813;SDS011;40714;51.378;-2.348;2023-09-18T00:19:32;1.90;;;1.50;;
54813;SDS011;40714;51.378;-2.348;2023-09-18T00:21:58;2.25;;;1.80;;
54813;SDS011;40714;51.378;-2.348;2023-09-18T00:24:26;2.03;;;1.73;;
54813;SDS011;40714;51.378;-2.348;2023-09-18T00:26:52;5.88;;;2.17;;
54813;SDS011;40714;51.378;-2.348;2023-09-18T00:29:19;2.50;;;1.80;;
54813;SDS011;40714;51.378;-2.348;2023-09-18T00:31:45;2.80;;;2.05;;
54813;SDS011;40714;51.378;-2.348;2023-09-18T00:34:11;5.47;;;2.28;;
54813;SDS011;40714;51.378;-2.348;2023-09-18T00:36:37;2.30;;;1.60;;
54813;SDS011;40714;51.378;-2.348;2023-09-18T00:39:03;2.17;;;1.98;;
54813;SDS011;40714;51.378;-2.348;2023-09-18T00:41:29;2.35;;;1.70;;
54813;SDS011;40714;51.378;-2.348;2023-09-18T00:43:55;2.42;;;1.83;;
54813;SDS011;40714;51.378;-2.348;2023-09-18T00:46:22;3.00;;;1.90;;
54813;SDS011;40714;51.378;-2.348;2023-09-18T00:48:48;2.75;;;1.90;;
54813;SDS011;40714;51.378;-2.348;2023-09-18T00:51:14;2.97;;;2.28;;
54813;SDS011;40714;51.378;-2.348;2023-09-18T00:53:44;4.18;;;1.88;;
54813;SDS011;40714;51.378;-2.348;2023-09-18T00:56:11;2.28;;;2.05;;
54813;SDS011;40714;51.378;-2.348;2023-09-18T00:58:38;2.22;;;2.03;;
54813;SDS011;40714;51.378;-2.348;2023-09-18T01:01:04;1.95;;;1.77;;
54813;SDS011;40714;51.378;-2.348;2023-09-18T01:03:30;2.15;;;1.70;;
54813;SDS011;40714;51.378;-2.348;2023-09-18T01:05:56;3.75;;;2.17;;
54813;SDS011;40714;51.378;-2.348;2023-09-18T01:08:22;2.20;;;1.98;;
54813;SDS011;40714;51.378;-2.348;2023-09-18T01:11:05;2.75;;;1.85;;
54813;SDS011;40714;51.378;-2.348;2023-09-18T01:13:49;3.17;;;1.92;;
54813;SDS011;40714;51.378;-2.348;2023-09-18T01:16:24;1.58;;;1.45;;
54813;SDS011;40714;51.378;-2.348;2023-09-18T01:18:52;2.67;;;1.90;;
54813;SDS011;40714;51.378;-2.348;2023-09-18T01:21:19;2.17;;;1.98;;
54813;SDS011;40714;51.378;-2.348;2023-09-18T01:23:48;1.98;;;1.75;;
54813;SDS011;40714;51.378;-2.348;2023-09-18T01:26:16;2.67;;;1.80;;
54813;SDS011;40714;51.378;-2.348;2023-09-18T01:28:42;4.13;;;2.33;;
54813;SDS011;40714;51.378;-2.348;2023-09-18T01:31:08;2.47;;;2.03;;
54813;SDS011;40714;51.378;-2.348;2023-09-18T01:33:34;3.50;;;2.00;;
54813;SDS011;40714;51.378;-2.348;2023-09-18T01:36:01;2.95;;;1.98;;
54813;SDS011;40714;51.378;-2.348;2023-09-18T01:38:28;3.20;;;1.73;;
54813;SDS011;40714;51.378;-2.348;2023-09-18T01:40:54;2.65;;;1.80;;
54813;SDS011;40714;51.378;-2.348;2023-09-18T01:43:20;2.20;;;1.85;;
54813;SDS011;40714;51.378;-2.348;2023-09-18T01:45:46;3.88;;;1.77;;
54813;SDS011;40714;51.378;-2.348;2023-09-18T01:48:13;2.35;;;1.67;;
54813;SDS011;40714;51.378;-2.348;2023-09-18T01:50:39;2.08;;;1.60;;
54813;SDS011;40714;51.378;-2.348;2023-09-18T01:53:05;2.40;;;2.20;;
54813;SDS011;40714;51.378;-2.348;2023-09-18T01:55:31;2.80;;;1.95;;
54813;SDS011;40714;51.378;-2.348;2023-09-18T01:57:58;2.35;;;1.75;;
54813;SDS011;40714;51.378;-2.348;2023-09-18T02:00:24;3.03;;;1.90;;
54813;SDS011;40714;51.378;-2.348;2023-09-18T02:02:50;2.45;;;1.90;;
54813;SDS011;40714;51.378;-2.348;2023-09-18T02:05:16;3.08;;;1.90;;
54813;SDS011;40714;51.378;-2.348;2023-09-18T02:07:42;2.40;;;1.67;;
54813;SDS011;40714;51.378;-2.348;2023-09-18T02:10:08;3.33;;;2.08;;
54813;SDS011;40714;51.378;-2.348;2023-09-18T02:12:34;2.67;;;1.90;;
54813;SDS011;40714;51.378;-2.348;2023-09-18T02:15:00;2.53;;;1.95;;
54813;SDS011;40714;51.378;-2.348;2023-09-18T02:17:31;3.40;;;2.13;;
54813;SDS011;40714;51.378;-2.348;2023-09-18T02:19:57;2.85;;;2.00;;
54813;SDS011;40714;51.378;-2.348;2023-09-18T02:22:23;2.70;;;2.05;;
54813;SDS011;40714;51.378;-2.348;2023-09-18T02:24:49;3.78;;;2.20;;
54813;SDS011;40714;51.378;-2.348;2023-09-18T02:27:15;2.53;;;1.63;;
54813;SDS011;40714;51.378;-2.348;2023-09-18T02:29:43;2.70;;;1.98;;
54813;SDS011;40714;51.378;-2.348;2023-09-18T02:32:09;2.83;;;1.80;;
54813;SDS011;40714;51.378;-2.348;2023-09-18T02:34:35;2.45;;;1.60;;
54813;SDS011;40714;51.378;-2.348;2023-09-18T02:37:01;2.90;;;2.15;;
54813;SDS011;40714;51.378;-2.348;2023-09-18T02:39:27;3.90;;;2.28;;
54813;SDS011;40714;51.378;-2.348;2023-09-18T02:41:53;2.53;;;2.05;;
54813;SDS011;40714;51.378;-2.348;2023-09-18T02:44:19;3.72;;;2.05;;
54813;SDS011;40714;51.378;-2.348;2023-09-18T02:46:45;2.72;;;2.10;;
54813;SDS011;40714;51.378;-2.348;2023-09-18T02:49:11;2.95;;;2.08;;
54813;SDS011;40714;51.378;-2.348;2023-09-18T02:51:37;2.42;;;2.22;;
54813;SDS011;40714;51.378;-2.348;2023-09-18T02:54:03;3.22;;;2.47;;
54813;SDS011;40714;51.378;-2.348;2023-09-18T02:56:29;2.85;;;1.95;;
54813;SDS011;40714;51.378;-2.348;2023-09-18T02:58:55;4.03;;;1.90;;
54813;SDS011;40714;51.378;-2.348;2023-09-18T03:01:21;3.47;;;1.85;;
54813;SDS011;40714;51.378;-2.348;2023-09-18T03:03:47;4.05;;;2.38;;
54813;SDS011;40714;51.378;-2.348;2023-09-18T03:06:13;5.05;;;2.53;;
54813;SDS011;40714;51.378;-2.348;2023-09-18T03:08:39;2.65;;;2.00;;
54813;SDS011;40714;51.378;-2.348;2023-09-18T03:11:11;2.63;;;2.00;;
54813;SDS011;40714;51.378;-2.348;2023-09-18T03:13:42;2.20;;;1.77;;
54813;SDS011;40714;51.378;-2.348;2023-09-18T03:16:10;2.45;;;1.85;;
54813;SDS011;40714;51.378;-2.348;2023-09-18T03:18:36;3.55;;;2.13;;
54813;SDS011;40714;51.378;-2.348;2023-09-18T03:21:02;3.40;;;1.77;;
54813;SDS011;40714;51.378;-2.348;2023-09-18T03:23:29;2.05;;;1.83;;
54813;SDS011;40714;51.378;-2.348;2023-09-18T03:25:55;3.90;;;1.67;;
54813;SDS011;40714;51.378;-2.348;2023-09-18T03:28:21;4.30;;;1.77;;
54813;SDS011;40714;51.378;-2.348;2023-09-18T03:30:47;3.10;;;1.90;;
54813;SDS011;40714;51.378;-2.348;2023-09-18T03:33:13;3.38;;;1.77;;
54813;SDS011;40714;51.378;-2.348;2023-09-18T03:35:46;2.50;;;1.80;;
54813;SDS011;40714;51.378;-2.348;2023-09-18T03:38:13;4.45;;;2.00;;
54813;SDS011;40714;51.378;-2.348;2023-09-18T03:40:39;3.13;;;1.65;;
54813;SDS011;40714;51.378;-2.348;2023-09-18T03:43:06;3.40;;;1.90;;
54813;SDS011;40714;51.378;-2.348;2023-09-18T03:45:32;1.98;;;1.60;;
54813;SDS011;40714;51.378;-2.348;2023-09-18T03:47:58;4.07;;;1.88;;
54813;SDS011;40714;51.378;-2.348;2023-09-18T03:50:24;1.55;;;1.45;;
54813;SDS011;40714;51.378;-2.348;2023-09-18T03:52:52;2.75;;;1.40;;
54813;SDS011;40714;51.378;-2.348;2023-09-18T03:55:18;2.35;;;1.42;;
54813;SDS011;40714;51.378;-2.348;2023-09-18T03:57:44;3.97;;;2.15;;
54813;SDS011;40714;51.378;-2.348;2023-09-18T04:00:13;4.80;;;1.70;;
54813;SDS011;40714;51.378;-2.348;2023-09-18T04:02:40;2.38;;;1.65;;
54813;SDS011;40714;51.378;-2.348;2023-09-18T04:05:06;3.72;;;1.88;;
54813;SDS011;40714;51.378;-2.348;2023-09-18T04:07:32;2.28;;;1.70;;
54813;SDS011;40714;51.378;-2.348;2023-09-18T04:09:58;3.00;;;1.40;;
54813;SDS011;40714;51.378;-2.348;2023-09-18T04:12:25;2.83;;;1.58;;
54813;SDS011;40714;51.378;-2.348;2023-09-18T04:14:51;2.45;;;1.48;;
54813;SDS011;40714;51.378;-2.348;2023-09-18T04:17:17;2.63;;;1.88;;
54813;SDS011;40714;51.378;-2.348;2023-09-18T04:19:43;2.92;;;1.70;;
54813;SDS011;40714;51.378;-2.348;2023-09-18T04:22:09;2.22;;;1.65;;
54813;SDS011;40714;51.378;-2.348;2023-09-18T04:24:35;1.85;;;1.40;;
54813;SDS011;40714;51.378;-2.348;2023-09-18T04:27:02;2.10;;;1.60;;
54813;SDS011;40714;51.378;-2.348;2023-09-18T04:29:28;2.75;;;1.90;;
54813;SDS011;40714;51.378;-2.348;2023-09-18T04:31:54;4.35;;;1.80;;
54813;SDS011;40714;51.378;-2.348;2023-09-18T04:34:20;2.40;;;1.88;;
54813;SDS011;40714;51.378;-2.348;2023-09-18T04:36:47;2.38;;;1.50;;
54813;SDS011;40714;51.378;-2.348;2023-09-18T04:39:13;2.42;;;1.65;;
54813;SDS011;40714;51.378;-2.348;2023-09-18T04:41:39;2.58;;;1.80;;
54813;SDS011;40714;51.378;-2.348;2023-09-18T04:44:05;2.95;;;1.42;;
54813;SDS011;40714;51.378;-2.348;2023-09-18T04:46:32;1.42;;;1.20;;
54813;SDS011;40714;51.378;-2.348;2023-09-18T04:48:59;2.08;;;1.40;;
54813;SDS011;40714;51.378;-2.348;2023-09-18T04:51:25;2.22;;;1.45;;
54813;SDS011;40714;51.378;-2.348;2023-09-18T04:53:51;2.28;;;1.52;;
54813;SDS011;40714;51.378;-2.348;2023-09-18T04:56:19;3.00;;;1.33;;
54813;SDS011;40714;51.378;-2.348;2023-09-18T04:58:45;1.60;;;1.38;;
54813;SDS011;40714;51.378;-2.348;2023-09-18T05:01:11;1.35;;;0.90;;
54813;SDS011;40714;51.378;-2.348;2023-09-18T05:03:37;1.98;;;1.45;;
54813;SDS011;40714;51.378;-2.348;2023-09-18T05:06:03;1.90;;;1.48;;
54813;SDS011;40714;51.378;-2.348;2023-09-18T05:08:29;1.88;;;1.40;;
54813;SDS011;40714;51.378;-2.348;2023-09-18T05:10:56;1.77;;;1.10;;
54813;SDS011;40714;51.378;-2.348;2023-09-18T05:13:22;2.00;;;1.77;;
54813;SDS011;40714;51.378;-2.348;2023-09-18T05:15:48;3.60;;;1.77;;
54813;SDS011;40714;51.378;-2.348;2023-09-18T05:18:14;2.30;;;1.38;;
54813;SDS011;40714;51.378;-2.348;2023-09-18T05:20:41;2.38;;;1.27;;
54813;SDS011;40714;51.378;-2.348;2023-09-18T05:23:07;1.83;;;1.25;;
54813;SDS011;40714;51.378;-2.348;2023-09-18T05:25:33;1.70;;;1.23;;
54813;SDS011;40714;51.378;-2.348;2023-09-18T05:28:03;3.67;;;1.33;;
54813;SDS011;40714;51.378;-2.348;2023-09-18T05:30:31;2.55;;;1.70;;
54813;SDS011;40714;51.378;-2.348;2023-09-18T05:32:59;2.38;;;1.55;;
54813;SDS011;40714;51.378;-2.348;2023-09-18T05:35:33;1.67;;;1.30;;
54813;SDS011;40714;51.378;-2.348;2023-09-18T05:38:00;3.03;;;1.70;;
54813;SDS011;40714;51.378;-2.348;2023-09-18T05:40:26;2.60;;;1.75;;
54813;SDS011;40714;51.378;-2.348;2023-09-18T05:42:53;1.52;;;1.20;;
54813;SDS011;40714;51.378;-2.348;2023-09-18T05:45:19;2.67;;;1.52;;
54813;SDS011;40714;51.378;-2.348;2023-09-18T05:47:45;1.42;;;1.10;;
54813;SDS011;40714;51.378;-2.348;2023-09-18T05:50:12;1.60;;;1.33;;
54813;SDS011;40714;51.378;-2.348;2023-09-18T05:52:41;2.90;;;1.50;;
54813;SDS011;40714;51.378;-2.348;2023-09-18T05:55:07;3.42;;;1.27;;
54813;SDS011;40714;51.378;-2.348;2023-09-18T05:57:34;2.55;;;1.52;;
54813;SDS011;40714;51.378;-2.348;2023-09-18T06:00:00;2.38;;;1.65;;
54813;SDS011;40714;51.378;-2.348;2023-09-18T06:02:26;2.78;;;1.50;;
54813;SDS011;40714;51.378;-2.348;2023-09-18T06:04:55;4.20;;;1.52;;
54813;SDS011;40714;51.378;-2.348;2023-09-18T06:07:28;2.13;;;1.40;;
54813;SDS011;40714;51.378;-2.348;2023-09-18T06:09:55;1.38;;;1.00;;
54813;SDS011;40714;51.378;-2.348;2023-09-18T06:12:21;2.53;;;1.40;;
54813;SDS011;40714;51.378;-2.348;2023-09-18T06:14:47;2.30;;;1.10;;
54813;SDS011;40714;51.378;-2.348;2023-09-18T06:17:14;1.98;;;1.35;;
54813;SDS011;40714;51.378;-2.348;2023-09-18T06:19:40;1.60;;;1.10;;
54813;SDS011;40714;51.378;-2.348;2023-09-18T06:22:06;2.13;;;1.20;;
54813;SDS011;40714;51.378;-2.348;2023-09-18T06:24:33;2.47;;;1.10;;
54813;SDS011;40714;51.378;-2.348;2023-09-18T06:26:59;1.33;;;1.13;;
54813;SDS011;40714;51.378;-2.348;2023-09-18T06:29:25;1.77;;;1.10;;
54813;SDS011;40714;51.378;-2.348;2023-09-18T06:31:51;1.63;;;0.98;;
54813;SDS011;40714;51.378;-2.348;2023-09-18T06:34:17;1.35;;;1.02;;
54813;SDS011;40714;51.378;-2.348;2023-09-18T06:36:43;2.05;;;1.20;;
54813;SDS011;40714;51.378;-2.348;2023-09-18T06:39:09;3.15;;;1.20;;
54813;SDS011;40714;51.378;-2.348;2023-09-18T06:41:35;1.40;;;0.93;;
54813;SDS011;40714;51.378;-2.348;2023-09-18T06:44:01;2.17;;;1.30;;
54813;SDS011;40714;51.378;-2.348;2023-09-18T06:46:31;2.10;;;1.10;;
54813;SDS011;40714;51.378;-2.348;2023-09-18T06:48:57;3.25;;;1.15;;
54813;SDS011;40714;51.378;-2.348;2023-09-18T06:51:26;1.73;;;1.02;;
54813;SDS011;40714;51.378;-2.348;2023-09-18T06:53:55;1.55;;;0.90;;
54813;SDS011;40714;51.378;-2.348;2023-09-18T06:56:22;1.65;;;1.00;;
54813;SDS011;40714;51.378;-2.348;2023-09-18T06:58:49;1.27;;;0.88;;
54813;SDS011;40714;51.378;-2.348;2023-09-18T07:01:16;1.05;;;0.80;;
54813;SDS011;40714;51.378;-2.348;2023-09-18T07:03:43;1.00;;;0.90;;
54813;SDS011;40714;51.378;-2.348;2023-09-18T07:06:09;1.08;;;0.88;;
54813;SDS011;40714;51.378;-2.348;2023-09-18T07:08:35;1.25;;;1.05;;
54813;SDS011;40714;51.378;-2.348;2023-09-18T07:11:01;1.65;;;1.15;;
54813;SDS011;40714;51.378;-2.348;2023-09-18T07:13:27;1.63;;;0.88;;
54813;SDS011;40714;51.378;-2.348;2023-09-18T07:15:53;0.90;;;0.70;;
54813;SDS011;40714;51.378;-2.348;2023-09-18T07:18:19;1.00;;;0.82;;
54813;SDS011;40714;51.378;-2.348;2023-09-18T07:20:46;2.05;;;0.88;;
54813;SDS011;40714;51.378;-2.348;2023-09-18T07:23:12;1.02;;;0.70;;
54813;SDS011;40714;51.378;-2.348;2023-09-18T07:25:38;2.63;;;1.67;;
54813;SDS011;40714;51.378;-2.348;2023-09-18T07:28:07;1.35;;;0.90;;
54813;SDS011;40714;51.378;-2.348;2023-09-18T07:33:01;1.73;;;0.70;;
54813;SDS011;40714;51.378;-2.348;2023-09-18T07:35:27;1.77;;;0.75;;
54813;SDS011;40714;51.378;-2.348;2023-09-18T07:37:53;1.73;;;0.85;;
54813;SDS011;40714;51.378;-2.348;2023-09-18T07:40:19;1.10;;;0.82;;
54813;SDS011;40714;51.378;-2.348;2023-09-18T07:42:45;1.73;;;1.10;;
54813;SDS011;40714;51.378;-2.348;2023-09-18T07:45:12;1.02;;;0.80;;
54813;SDS011;40714;51.378;-2.348;2023-09-18T07:47:38;1.45;;;0.80;;
54813;SDS011;40714;51.378;-2.348;2023-09-18T07:50:04;1.73;;;0.88;;
54813;SDS011;40714;51.378;-2.348;2023-09-18T07:52:31;1.48;;;0.82;;
54813;SDS011;40714;51.378;-2.348;2023-09-18T07:54:57;1.38;;;0.75;;
54813;SDS011;40714;51.378;-2.348;2023-09-18T07:57:23;2.55;;;0.80;;
54813;SDS011;40714;51.378;-2.348;2023-09-18T07:59:50;1.95;;;0.98;;
54813;SDS011;40714;51.378;-2.348;2023-09-18T08:02:16;0.82;;;0.65;;
54813;SDS011;40714;51.378;-2.348;2023-09-18T08:04:42;1.60;;;0.70;;
54813;SDS011;40714;51.378;-2.348;2023-09-18T08:07:08;1.05;;;0.85;;
54813;SDS011;40714;51.378;-2.348;2023-09-18T08:09:35;3.55;;;1.00;;
54813;SDS011;40714;51.378;-2.348;2023-09-18T08:12:04;2.67;;;0.77;;
54813;SDS011;40714;51.378;-2.348;2023-09-18T08:14:30;1.38;;;0.57;;
54813;SDS011;40714;51.378;-2.348;2023-09-18T08:16:57;1.23;;;0.68;;
54813;SDS011;40714;51.378;-2.348;2023-09-18T08:19:24;1.10;;;0.70;;
54813;SDS011;40714;51.378;-2.348;2023-09-18T08:21:52;1.33;;;0.75;;
54813;SDS011;40714;51.378;-2.348;2023-09-18T08:24:18;1.10;;;0.68;;
54813;SDS011;40714;51.378;-2.348;2023-09-18T08:26:44;0.75;;;0.52;;
54813;SDS011;40714;51.378;-2.348;2023-09-18T08:29:10;1.50;;;0.60;;
54813;SDS011;40714;51.378;-2.348;2023-09-18T08:31:36;1.00;;;0.60;;
54813;SDS011;40714;51.378;-2.348;2023-09-18T08:34:02;1.05;;;0.77;;
54813;SDS011;40714;51.378;-2.348;2023-09-18T08:36:28;1.08;;;0.70;;
54813;SDS011;40714;51.378;-2.348;2023-09-18T08:38:56;3.05;;;1.10;;
54813;SDS011;40714;51.378;-2.348;2023-09-18T08:41:23;1.38;;;0.80;;
54813;SDS011;40714;51.378;-2.348;2023-09-18T08:46:17;0.95;;;0.70;;
54813;SDS011;40714;51.378;-2.348;2023-09-18T08:48:44;1.90;;;1.00;;
54813;SDS011;40714;51.378;-2.348;2023-09-18T08:51:10;1.15;;;0.85;;
54813;SDS011;40714;51.378;-2.348;2023-09-18T08:53:36;1.48;;;0.70;;
54813;SDS011;40714;51.378;-2.348;2023-09-18T08:56:03;1.02;;;0.82;;
54813;SDS011;40714;51.378;-2.348;2023-09-18T08:58:31;0.93;;;0.70;;
54813;SDS011;40714;51.378;-2.348;2023-09-18T09:00:59;1.05;;;0.85;;
54813;SDS011;40714;51.378;-2.348;2023-09-18T09:03:26;1.30;;;0.80;;
54813;SDS011;40714;51.378;-2.348;2023-09-18T09:05:52;1.77;;;0.80;;
54813;SDS011;40714;51.378;-2.348;2023-09-18T09:08:18;1.02;;;0.60;;
54813;SDS011;40714;51.378;-2.348;2023-09-18T09:10:46;2.65;;;0.80;;
54813;SDS011;40714;51.378;-2.348;2023-09-18T09:13:13;1.27;;;0.82;;
54813;SDS011;40714;51.378;-2.348;2023-09-18T09:15:44;1.38;;;0.80;;
54813;SDS011;40714;51.378;-2.348;2023-09-18T09:18:11;0.88;;;0.60;;
54813;SDS011;40714;51.378;-2.348;2023-09-18T09:20:37;2.25;;;1.15;;
54813;SDS011;40714;51.378;-2.348;2023-09-18T09:23:05;1.58;;;0.73;;
54813;SDS011;40714;51.378;-2.348;2023-09-18T09:25:34;1.15;;;0.70;;
54813;SDS011;40714;51.378;-2.348;2023-09-18T09:28:02;2.05;;;0.98;;
54813;SDS011;40714;51.378;-2.348;2023-09-18T09:30:30;1.35;;;0.77;;
54813;SDS011;40714;51.378;-2.348;2023-09-18T09:32:56;2.58;;;0.60;;
54813;SDS011;40714;51.378;-2.348;2023-09-18T09:35:24;0.80;;;0.70;;
54813;SDS011;40714;51.378;-2.348;2023-09-18T09:37:52;1.27;;;0.70;;
54813;SDS011;40714;51.378;-2.348;2023-09-18T09:40:20;0.90;;;0.77;;
54813;SDS011;40714;51.378;-2.348;2023-09-18T09:42:47;2.45;;;0.70;;
54813;SDS011;40714;51.378;-2.348;2023-09-18T09:45:14;0.68;;;0.50;;
54813;SDS011;40714;51.378;-2.348;2023-09-18T09:47:43;1.48;;;0.60;;
54813;SDS011;40714;51.378;-2.348;2023-09-18T09:50:13;1.13;;;0.65;;
54813;SDS011;40714;51.378;-2.348;2023-09-18T09:52:44;1.85;;;0.50;;
54813;SDS011;40714;51.378;-2.348;2023-09-18T09:55:19;1.45;;;0.65;;
54813;SDS011;40714;51.378;-2.348;2023-09-18T09:57:49;1.77;;;0.90;;
54813;SDS011;40714;51.378;-2.348;2023-09-18T10:00:15;0.90;;;0.52;;
54813;SDS011;40714;51.378;-2.348;2023-09-18T10:02:53;0.93;;;0.40;;
54813;SDS011;40714;51.378;-2.348;2023-09-18T10:05:19;0.88;;;0.70;;
54813;SDS011;40714;51.378;-2.348;2023-09-18T10:07:46;0.50;;;0.47;;
54813;SDS011;40714;51.378;-2.348;2023-09-18T10:10:12;1.88;;;0.60;;
54813;SDS011;40714;51.378;-2.348;2023-09-18T10:12:38;0.80;;;0.63;;
54813;SDS011;40714;51.378;-2.348;2023-09-18T10:15:05;1.33;;;0.57;;
54813;SDS011;40714;51.378;-2.348;2023-09-18T10:17:34;0.75;;;0.50;;
54813;SDS011;40714;51.378;-2.348;2023-09-18T10:20:07;0.60;;;0.40;;
54813;SDS011;40714;51.378;-2.348;2023-09-18T10:22:39;0.93;;;0.55;;
54813;SDS011;40714;51.378;-2.348;2023-09-18T10:25:11;0.47;;;0.35;;
54813;SDS011;40714;51.378;-2.348;2023-09-18T10:27:42;1.15;;;0.50;;
54813;SDS011;40714;51.378;-2.348;2023-09-18T10:30:10;0.63;;;0.40;;
54813;SDS011;40714;51.378;-2.348;2023-09-18T10:32:38;2.53;;;0.47;;
54813;SDS011;40714;51.378;-2.348;2023-09-18T10:35:06;0.95;;;0.70;;
54813;SDS011;40714;51.378;-2.348;2023-09-18T10:37:33;1.27;;;0.30;;
54813;SDS011;40714;51.378;-2.348;2023-09-18T10:40:00;0.93;;;0.30;;
54813;SDS011;40714;51.378;-2.348;2023-09-18T10:42:27;0.52;;;0.40;;
54813;SDS011;40714;51.378;-2.348;2023-09-18T10:44:55;0.50;;;0.30;;
54813;SDS011;40714;51.378;-2.348;2023-09-18T10:47:21;0.65;;;0.47;;
54813;SDS011;40714;51.378;-2.348;2023-09-18T10:49:48;1.45;;;0.40;;
54813;SDS011;40714;51.378;-2.348;2023-09-18T10:52:15;0.70;;;0.47;;
54813;SDS011;40714;51.378;-2.348;2023-09-18T10:54:41;0.55;;;0.40;;
54813;SDS011;40714;51.378;-2.348;2023-09-18T10:57:07;0.40;;;0.40;;
54813;SDS011;40714;51.378;-2.348;2023-09-18T10:59:33;2.10;;;0.60;;
54813;SDS011;40714;51.378;-2.348;2023-09-18T11:02:03;0.75;;;0.70;;
54813;SDS011;40714;51.378;-2.348;2023-09-18T11:04:32;0.93;;;0.82;;
54813;SDS011;40714;51.378;-2.348;2023-09-18T11:09:25;2.95;;;1.45;;
54813;SDS011;40714;51.378;-2.348;2023-09-18T11:20:01;1.92;;;1.13;;
54813;SDS011;40714;51.378;-2.348;2023-09-18T11:22:30;1.85;;;1.23;;
54813;SDS011;40714;51.378;-2.348;2023-09-18T11:25:28;1.70;;;1.08;;
54813;SDS011;40714;51.378;-2.348;2023-09-18T11:27:54;2.35;;;1.15;;
54813;SDS011;40714;51.378;-2.348;2023-09-18T11:30:21;1.63;;;1.10;;
54813;SDS011;40714;51.378;-2.348;2023-09-18T11:32:48;2.97;;;1.30;;
54813;SDS011;40714;51.378;-2.348;2023-09-18T11:35:14;1.63;;;1.20;;
54813;SDS011;40714;51.378;-2.348;2023-09-18T11:37:43;2.35;;;1.30;;
54813;SDS011;40714;51.378;-2.348;2023-09-18T11:43:18;1.83;;;1.10;;
54813;SDS011;40714;51.378;-2.348;2023-09-18T11:45:49;1.83;;;1.10;;
54813;SDS011;40714;51.378;-2.348;2023-09-18T11:48:16;2.70;;;1.30;;
54813;SDS011;40714;51.378;-2.348;2023-09-18T11:50:43;2.08;;;1.40;;
54813;SDS011;40714;51.378;-2.348;2023-09-18T11:53:09;3.17;;;1.17;;
54813;SDS011;40714;51.378;-2.348;2023-09-18T11:55:37;4.05;;;1.30;;
54813;SDS011;40714;51.378;-2.348;2023-09-18T11:58:03;1.48;;;1.10;;
54813;SDS011;40714;51.378;-2.348;2023-09-18T12:00:30;2.05;;;1.15;;
54813;SDS011;40714;51.378;-2.348;2023-09-18T12:02:56;1.38;;;0.90;;
54813;SDS011;40714;51.378;-2.348;2023-09-18T12:05:26;0.82;;;0.70;;
54813;SDS011;40714;51.378;-2.348;2023-09-18T12:07:52;1.27;;;0.80;;
54813;SDS011;40714;51.378;-2.348;2023-09-18T12:10:19;2.15;;;0.80;;
54813;SDS011;40714;51.378;-2.348;2023-09-18T12:12:46;2.10;;;0.60;;
54813;SDS011;40714;51.378;-2.348;2023-09-18T12:15:13;1.00;;;0.70;;
54813;SDS011;40714;51.378;-2.348;2023-09-18T12:17:42;2.28;;;0.77;;
54813;SDS011;40714;51.378;-2.348;2023-09-18T12:20:18;0.70;;;0.47;;
54813;SDS011;40714;51.378;-2.348;2023-09-18T12:22:46;1.63;;;0.63;;
54813;SDS011;40714;51.378;-2.348;2023-09-18T12:25:13;1.02;;;0.45;;
54813;SDS011;40714;51.378;-2.348;2023-09-18T12:27:43;1.23;;;0.70;;
54813;SDS011;40714;51.378;-2.348;2023-09-18T12:30:09;1.38;;;0.68;;
54813;SDS011;40714;51.378;-2.348;2023-09-18T12:32:36;1.50;;;0.50;;
54813;SDS011;40714;51.378;-2.348;2023-09-18T12:35:02;1.77;;;0.50;;
54813;SDS011;40714;51.378;-2.348;2023-09-18T12:37:31;0.68;;;0.40;;
54813;SDS011;40714;51.378;-2.348;2023-09-18T12:39:57;0.63;;;0.40;;
54813;SDS011;40714;51.378;-2.348;2023-09-18T12:42:23;1.65;;;0.47;;
54813;SDS011;40714;51.378;-2.348;2023-09-18T12:44:50;0.82;;;0.47;;
54813;SDS011;40714;51.378;-2.348;2023-09-18T12:47:16;3.67;;;0.40;;
54813;SDS011;40714;51.378;-2.348;2023-09-18T12:49:42;0.90;;;0.40;;
54813;SDS011;40714;51.378;-2.348;2023-09-18T12:52:08;2.60;;;0.55;;
54813;SDS011;40714;51.378;-2.348;2023-09-18T12:54:45;0.73;;;0.30;;
54813;SDS011;40714;51.378;-2.348;2023-09-18T12:57:17;0.50;;;0.43;;
54813;SDS011;40714;51.378;-2.348;2023-09-18T12:59:44;0.90;;;0.50;;
54813;SDS011;40714;51.378;-2.348;2023-09-18T13:02:12;1.75;;;0.68;;
54813;SDS011;40714;51.378;-2.348;2023-09-18T13:04:38;1.42;;;0.52;;
54813;SDS011;40714;51.378;-2.348;2023-09-18T13:07:11;1.27;;;0.40;;
54813;SDS011;40714;51.378;-2.348;2023-09-18T13:09:38;3.30;;;0.70;;
54813;SDS011;40714;51.378;-2.348;2023-09-18T13:12:05;0.80;;;0.30;;
54813;SDS011;40714;51.378;-2.348;2023-09-18T13:14:56;1.00;;;0.28;;
54813;SDS011;40714;51.378;-2.348;2023-09-18T13:17:17;0.40;;;0.20;;
54813;SDS011;40714;51.378;-2.348;2023-09-18T13:19:43;0.55;;;0.20;;
54813;SDS011;40714;51.378;-2.348;2023-09-18T13:22:09;0.63;;;0.20;;
54813;SDS011;40714;51.378;-2.348;2023-09-18T13:24:35;0.32;;;0.20;;
54813;SDS011;40714;51.378;-2.348;2023-09-18T13:27:02;1.52;;;0.30;;
54813;SDS011;40714;51.378;-2.348;2023-09-18T13:29:28;0.43;;;0.20;;
54813;SDS011;40714;51.378;-2.348;2023-09-18T13:31:54;0.25;;;0.20;;
54813;SDS011;40714;51.378;-2.348;2023-09-18T13:34:21;0.63;;;0.20;;
54813;SDS011;40714;51.378;-2.348;2023-09-18T13:36:47;0.77;;;0.20;;
54813;SDS011;40714;51.378;-2.348;2023-09-18T13:39:13;0.75;;;0.20;;
54813;SDS011;40714;51.378;-2.348;2023-09-18T13:41:43;1.40;;;0.30;;
54813;SDS011;40714;51.378;-2.348;2023-09-18T13:44:09;0.40;;;0.28;;
54813;SDS011;40714;51.378;-2.348;2023-09-18T13:46:36;0.98;;;0.45;;
54813;SDS011;40714;51.378;-2.348;2023-09-18T13:49:03;1.02;;;0.30;;
54813;SDS011;40714;51.378;-2.348;2023-09-18T13:51:30;1.25;;;0.30;;
54813;SDS011;40714;51.378;-2.348;2023-09-18T13:53:56;2.15;;;0.40;;
54813;SDS011;40714;51.378;-2.348;2023-09-18T13:56:23;0.57;;;0.30;;
54813;SDS011;40714;51.378;-2.348;2023-09-18T13:58:53;1.67;;;0.40;;
54813;SDS011;40714;51.378;-2.348;2023-09-18T14:01:19;1.17;;;0.50;;
54813;SDS011;40714;51.378;-2.348;2023-09-18T14:03:45;0.82;;;0.50;;
54813;SDS011;40714;51.378;-2.348;2023-09-18T14:06:11;0.85;;;0.47;;
54813;SDS011;40714;51.378;-2.348;2023-09-18T14:08:37;1.30;;;0.40;;
54813;SDS011;40714;51.378;-2.348;2023-09-18T14:11:05;1.02;;;0.52;;
54813;SDS011;40714;51.378;-2.348;2023-09-18T14:13:31;2.47;;;0.63;;
54813;SDS011;40714;51.378;-2.348;2023-09-18T14:15:57;2.00;;;0.40;;
54813;SDS011;40714;51.378;-2.348;2023-09-18T14:18:24;1.08;;;0.90;;
54813;SDS011;40714;51.378;-2.348;2023-09-18T14:20:50;3.85;;;0.80;;
54813;SDS011;40714;51.378;-2.348;2023-09-18T14:23:16;0.70;;;0.40;;
54813;SDS011;40714;51.378;-2.348;2023-09-18T14:25:42;3.17;;;0.50;;
54813;SDS011;40714;51.378;-2.348;2023-09-18T14:28:08;3.00;;;0.60;;
54813;SDS011;40714;51.378;-2.348;2023-09-18T14:30:34;1.23;;;0.43;;
54813;SDS011;40714;51.378;-2.348;2023-09-18T14:33:00;1.17;;;0.50;;
54813;SDS011;40714;51.378;-2.348;2023-09-18T14:35:27;3.25;;;0.75;;
54813;SDS011;40714;51.378;-2.348;2023-09-18T14:37:53;2.65;;;0.50;;
54813;SDS011;40714;51.378;-2.348;2023-09-18T14:40:19;2.22;;;0.43;;
54813;SDS011;40714;51.378;-2.348;2023-09-18T14:42:46;4.05;;;0.75;;
54813;SDS011;40714;51.378;-2.348;2023-09-18T14:45:12;2.13;;;0.45;;
54813;SDS011;40714;51.378;-2.348;2023-09-18T14:47:38;3.03;;;0.77;;
54813;SDS011;40714;51.378;-2.348;2023-09-18T14:50:05;3.75;;;0.60;;
54813;SDS011;40714;51.378;-2.348;2023-09-18T14:52:31;2.88;;;0.50;;
54813;SDS011;40714;51.378;-2.348;2023-09-18T14:54:57;3.80;;;1.13;;